Time;durP1;ratioP1;P1;durP2;ratioP2;P2;SDS_P1;SDS_P2;PMS_P1;PMS_P2;Temp;Humidity;BMP_temperature;BMP_pressure;BME280_temperature;BME280_humidity;BME280_pressure;Samples;Min_cycle;Max_cycle;Signal;HPM_P1;HPM_P2
2023/08/25 00:00:58;;;;;;;2.60;2.40;;;24.70;99.90;;;;;;5029484;28;20194;-70
2023/08/25 00:03:24;;;;;;;2.05;1.95;;;24.70;99.90;;;;;;5040134;28;20203;-70
2023/08/25 00:05:56;;;;;;;2.67;2.47;;;24.70;99.90;;;;;;5034172;28;20337;-69
2023/08/25 00:08:22;;;;;;;2.20;2.00;;;24.60;99.90;;;;;;5014731;28;20195;-70
2023/08/25 00:10:49;;;;;;;2.22;2.13;;;24.70;99.90;;;;;;5032985;28;20286;-70
2023/08/25 00:13:15;;;;;;;2.35;2.15;;;24.70;99.90;;;;;;5042521;28;20187;-69
2023/08/25 00:15:42;;;;;;;2.30;2.20;;;24.70;99.90;;;;;;5042114;28;20234;-70
2023/08/25 00:18:08;;;;;;;2.20;2.00;;;24.70;99.90;;;;;;5021546;28;20196;-70
2023/08/25 00:20:36;;;;;;;2.08;1.98;;;24.70;99.90;;;;;;5030911;28;20202;-70
2023/08/25 00:23:02;;;;;;;2.42;2.22;;;24.70;99.90;;;;;;5038350;28;20187;-68
2023/08/25 00:25:30;;;;;;;2.38;2.22;;;24.60;99.90;;;;;;5038909;28;20203;-70
2023/08/25 00:27:56;;;;;;;2.22;2.08;;;24.70;99.90;;;;;;5020503;28;20179;-70
2023/08/25 00:30:22;;;;;;;2.53;2.33;;;24.70;99.90;;;;;;5030575;28;20552;-70
2023/08/25 00:32:47;;;;;;;2.13;1.92;;;24.70;99.90;;;;;;5044248;28;20186;-69
2023/08/25 00:35:13;;;;;;;2.58;2.03;;;24.70;99.90;;;;;;5020092;28;20238;-70
2023/08/25 00:37:39;;;;;;;3.00;2.28;;;24.70;99.90;;;;;;5028697;28;20207;-70
2023/08/25 00:40:06;;;;;;;2.10;2.00;;;24.70;99.90;;;;;;5021316;28;20225;-70
2023/08/25 00:42:32;;;;;;;2.35;2.15;;;24.60;99.90;;;;;;5037306;28;20202;-70
2023/08/25 00:44:57;;;;;;;2.40;2.03;;;24.70;99.90;;;;;;5025068;28;20246;-70
2023/08/25 00:47:24;;;;;;;2.60;2.40;;;24.60;99.90;;;;;;5017593;28;20549;-71
2023/08/25 00:49:52;;;;;;;2.20;2.00;;;24.70;99.90;;;;;;5024662;28;20215;-71
2023/08/25 00:52:20;;;;;;;2.20;2.10;;;24.60;99.90;;;;;;5036685;28;20189;-70
2023/08/25 00:54:51;;;;;;;2.03;1.90;;;24.70;99.90;;;;;;5016720;28;20320;-70
2023/08/25 00:57:17;;;;;;;2.25;2.05;;;24.70;99.90;;;;;;5034301;28;20187;-69
2023/08/25 00:59:45;;;;;;;2.28;2.10;;;24.70;99.90;;;;;;5033292;28;20182;-71
2023/08/25 01:02:12;;;;;;;1.98;1.88;;;24.60;99.90;;;;;;5042634;28;20262;-69
2023/08/25 01:04:38;;;;;;;2.53;2.25;;;24.60;99.90;;;;;;5014040;28;20216;-70
2023/08/25 01:07:04;;;;;;;1.98;1.88;;;24.60;99.90;;;;;;5008025;28;20191;-70
2023/08/25 01:09:33;;;;;;;2.05;1.95;;;24.60;99.90;;;;;;5032716;28;20555;-70
2023/08/25 01:12:17;;;;;;;1.98;1.88;;;24.60;99.90;;;;;;5027841;28;20201;-70
2023/08/25 01:15:02;;;;;;;2.13;1.92;;;24.60;99.90;;;;;;5034662;28;20194;-70
2023/08/25 01:17:37;;;;;;;2.22;2.13;;;24.60;99.90;;;;;;5040283;28;20194;-69
2023/08/25 01:20:07;;;;;;;2.08;1.90;;;24.60;99.90;;;;;;5029218;28;20195;-69
2023/08/25 01:23:02;;;;;;;2.13;2.03;;;24.60;99.90;;;;;;5045465;28;20256;-70
2023/08/25 01:25:30;;;;;;;2.00;1.90;;;24.60;99.90;;;;;;5053167;28;20236;-70
2023/08/25 01:28:00;;;;;;;3.60;2.05;;;24.60;99.90;;;;;;5041645;28;20323;-70
2023/08/25 01:30:30;;;;;;;1.80;1.70;;;24.60;99.90;;;;;;5040068;28;20194;-70
2023/08/25 01:32:57;;;;;;;3.10;2.10;;;24.70;99.90;;;;;;5052920;28;20186;-70
2023/08/25 01:36:00;;;;;;;2.05;1.90;;;24.60;99.90;;;;;;5035165;28;20202;-70
2023/08/25 01:39:19;;;;;;;2.20;2.10;;;24.60;99.90;;;;;;5021217;28;20192;-69
2023/08/25 01:41:52;;;;;;;2.05;1.95;;;24.60;99.90;;;;;;4984782;28;20201;-70
2023/08/25 01:44:21;;;;;;;1.90;1.80;;;24.60;99.90;;;;;;5009548;28;20215;-70
2023/08/25 01:46:58;;;;;;;2.10;1.90;;;24.60;99.90;;;;;;5016865;28;20219;-69
2023/08/25 01:49:24;;;;;;;1.88;1.77;;;24.60;99.90;;;;;;5037913;28;20670;-70
2023/08/25 01:51:51;;;;;;;2.00;1.90;;;24.70;99.90;;;;;;5014710;28;20254;-69
2023/08/25 01:54:17;;;;;;;2.10;2.00;;;24.60;99.90;;;;;;5032210;28;20217;-70
2023/08/25 01:56:43;;;;;;;2.05;1.95;;;24.60;99.90;;;;;;5040668;28;20210;-69
2023/08/25 01:59:09;;;;;;;1.90;1.80;;;24.60;99.90;;;;;;5024173;28;20179;-70
2023/08/25 02:01:34;;;;;;;2.13;1.80;;;24.60;99.90;;;;;;5040469;28;20194;-71
2023/08/25 02:04:03;;;;;;;2.28;2.08;;;24.60;99.90;;;;;;5031976;28;20238;-70
2023/08/25 02:06:30;;;;;;;1.98;1.88;;;24.60;99.90;;;;;;5028217;28;20206;-70
2023/08/25 02:08:56;;;;;;;1.60;1.50;;;24.60;99.90;;;;;;5031393;28;20180;-69
2023/08/25 02:11:22;;;;;;;1.90;1.80;;;24.60;99.90;;;;;;5026585;28;20648;-70
2023/08/25 02:13:48;;;;;;;1.90;1.80;;;24.60;99.90;;;;;;5011701;28;20184;-69
2023/08/25 02:16:14;;;;;;;1.80;1.70;;;24.60;99.90;;;;;;5032218;28;20216;-70
2023/08/25 02:18:40;;;;;;;2.03;1.92;;;24.60;99.90;;;;;;5029133;28;20207;-70
2023/08/25 02:21:06;;;;;;;1.88;1.77;;;24.60;99.90;;;;;;5028775;28;20229;-71
2023/08/25 02:23:32;;;;;;;1.92;1.83;;;24.60;99.90;;;;;;5031898;28;20353;-69
2023/08/25 02:26:00;;;;;;;1.80;1.70;;;24.60;99.90;;;;;;5025240;28;20203;-71
2023/08/25 02:28:26;;;;;;;1.83;1.73;;;24.60;99.90;;;;;;5033586;28;20183;-70
2023/08/25 02:30:51;;;;;;;1.90;1.80;;;24.60;99.90;;;;;;5023739;28;20187;-70
2023/08/25 02:33:17;;;;;;;1.95;1.85;;;24.60;99.90;;;;;;5032350;28;20195;-69
2023/08/25 02:35:44;;;;;;;2.47;1.88;;;24.60;99.90;;;;;;5029617;28;20302;-69
2023/08/25 02:38:11;;;;;;;1.80;1.70;;;24.60;99.90;;;;;;5043717;28;20225;-70
2023/08/25 02:40:39;;;;;;;1.60;1.50;;;24.60;99.90;;;;;;5037960;28;20233;-70
2023/08/25 02:43:07;;;;;;;2.00;1.90;;;24.60;99.90;;;;;;5030963;28;20178;-69
2023/08/25 02:45:35;;;;;;;2.08;1.98;;;24.60;99.90;;;;;;5032549;28;20203;-70
2023/08/25 02:48:01;;;;;;;1.95;1.80;;;24.60;99.90;;;;;;5043490;28;20187;-70
2023/08/25 02:50:28;;;;;;;1.83;1.73;;;24.60;99.90;;;;;;5035759;28;20199;-70
2023/08/25 02:52:54;;;;;;;1.70;1.60;;;24.60;99.90;;;;;;5034215;28;20192;-71
2023/08/25 02:55:22;;;;;;;2.33;1.90;;;24.60;99.90;;;;;;5044005;28;20202;-69
2023/08/25 02:57:49;;;;;;;2.00;1.90;;;24.60;99.90;;;;;;5069247;28;20190;-69
2023/08/25 03:00:25;;;;;;;1.90;1.67;;;24.60;99.90;;;;;;5048889;28;20202;-69
2023/08/25 03:02:52;;;;;;;2.10;1.90;;;24.60;99.90;;;;;;5038979;28;20257;-70
2023/08/25 03:05:21;;;;;;;1.67;1.58;;;24.60;99.90;;;;;;5043273;28;20211;-70
2023/08/25 03:07:47;;;;;;;2.08;1.83;;;24.60;99.90;;;;;;5027672;28;20188;-70
2023/08/25 03:10:12;;;;;;;1.80;1.70;;;24.60;99.90;;;;;;5031866;28;20189;-70
2023/08/25 03:12:38;;;;;;;1.95;1.85;;;24.60;99.90;;;;;;5047471;28;20252;-69
2023/08/25 03:15:07;;;;;;;1.65;1.55;;;24.60;99.90;;;;;;5031448;28;20341;-70
2023/08/25 03:17:34;;;;;;;1.85;1.75;;;24.60;99.90;;;;;;5046627;28;20646;-70
2023/08/25 03:20:02;;;;;;;1.80;1.70;;;24.60;99.90;;;;;;5039871;28;20199;-69
2023/08/25 03:22:29;;;;;;;1.80;1.70;;;24.60;99.90;;;;;;5050229;28;20234;-70
2023/08/25 03:24:55;;;;;;;1.65;1.55;;;24.60;99.90;;;;;;5044807;28;20218;-69
2023/08/25 03:27:20;;;;;;;1.48;1.48;;;24.50;99.90;;;;;;5033417;28;20569;-70
2023/08/25 03:29:46;;;;;;;1.80;1.70;;;24.60;99.90;;;;;;5018347;28;20195;-70
2023/08/25 03:32:12;;;;;;;1.60;1.50;;;24.60;99.90;;;;;;5031341;28;20190;-70
2023/08/25 03:34:38;;;;;;;1.95;1.85;;;24.60;99.90;;;;;;5038438;28;20564;-70
2023/08/25 03:37:05;;;;;;;1.40;1.35;;;24.60;99.90;;;;;;5026397;28;20221;-70
2023/08/25 03:39:32;;;;;;;1.90;1.70;;;24.60;99.90;;;;;;5043157;28;20190;-69
2023/08/25 03:41:58;;;;;;;1.90;1.80;;;24.60;99.90;;;;;;5059006;28;20195;-70
2023/08/25 03:44:23;;;;;;;1.67;1.58;;;24.60;99.90;;;;;;5032204;28;20264;-71
2023/08/25 03:46:49;;;;;;;1.98;1.88;;;24.60;99.90;;;;;;5038395;28;20203;-70
2023/08/25 03:49:15;;;;;;;1.55;1.45;;;24.60;99.90;;;;;;5046426;28;20183;-70
2023/08/25 03:51:41;;;;;;;1.70;1.60;;;24.60;99.90;;;;;;5038521;28;20345;-71
2023/08/25 03:54:07;;;;;;;1.75;1.65;;;24.60;99.90;;;;;;5025957;28;20194;-69
2023/08/25 03:56:33;;;;;;;1.45;1.42;;;24.60;99.90;;;;;;5035542;28;20207;-70
2023/08/25 03:58:59;;;;;;;1.70;1.60;;;24.60;99.90;;;;;;5042744;28;20190;-70
2023/08/25 04:01:24;;;;;;;1.73;1.63;;;24.60;99.90;;;;;;5017555;28;20195;-70
2023/08/25 04:03:50;;;;;;;1.50;1.40;;;24.60;99.90;;;;;;5022642;28;20207;-70
2023/08/25 04:06:16;;;;;;;1.85;1.75;;;24.50;99.90;;;;;;5022144;28;20214;-70
2023/08/25 04:08:42;;;;;;;1.90;1.80;;;24.60;99.90;;;;;;5046500;28;20209;-70
2023/08/25 04:11:08;;;;;;;1.70;1.60;;;24.60;99.90;;;;;;5034458;28;20582;-71
2023/08/25 04:13:33;;;;;;;2.00;1.83;;;24.60;99.90;;;;;;5024308;28;20198;-69
2023/08/25 04:16:01;;;;;;;1.80;1.70;;;24.50;99.90;;;;;;5051985;28;20301;-69
2023/08/25 04:18:30;;;;;;;1.70;1.60;;;24.50;99.90;;;;;;5034433;28;20185;-70
2023/08/25 04:20:56;;;;;;;1.88;1.77;;;24.60;99.90;;;;;;5033775;28;20191;-71
2023/08/25 04:23:25;;;;;;;2.00;1.90;;;24.60;99.90;;;;;;5033964;28;20256;-70
2023/08/25 04:25:51;;;;;;;1.73;1.63;;;24.60;99.90;;;;;;5035196;28;20690;-69
2023/08/25 04:28:17;;;;;;;1.77;1.67;;;24.50;99.90;;;;;;5040887;28;20570;-70
2023/08/25 04:30:44;;;;;;;1.63;1.52;;;24.50;99.90;;;;;;5034084;28;20179;-70
2023/08/25 04:33:21;;;;;;;1.70;1.60;;;24.60;99.90;;;;;;5031786;28;20265;-70
2023/08/25 04:35:47;;;;;;;1.50;1.40;;;24.50;99.90;;;;;;5036573;28;20246;-69
2023/08/25 04:38:13;;;;;;;1.70;1.60;;;24.60;99.90;;;;;;5029447;28;20650;-70
2023/08/25 04:40:41;;;;;;;1.70;1.60;;;24.50;99.90;;;;;;5037397;28;20186;-70
2023/08/25 04:43:07;;;;;;;1.60;1.50;;;24.60;99.90;;;;;;5033872;28;20689;-69
2023/08/25 04:45:33;;;;;;;1.42;1.33;;;24.60;99.90;;;;;;5048157;28;20203;-70
2023/08/25 04:47:59;;;;;;;1.42;1.33;;;24.50;99.90;;;;;;5043371;28;20188;-70
2023/08/25 04:50:25;;;;;;;1.50;1.40;;;24.50;99.90;;;;;;5042272;28;20187;-70
2023/08/25 04:52:51;;;;;;;1.88;1.77;;;24.50;99.90;;;;;;5033328;28;20241;-70
2023/08/25 04:55:18;;;;;;;1.70;1.60;;;24.50;99.90;;;;;;5037686;28;20202;-70
2023/08/25 04:57:45;;;;;;;1.60;1.50;;;24.50;99.90;;;;;;5036032;28;20194;-70
2023/08/25 05:00:11;;;;;;;1.85;1.75;;;24.50;99.90;;;;;;5041953;28;20187;-69
2023/08/25 05:02:38;;;;;;;1.52;1.42;;;24.50;99.90;;;;;;5032641;28;20195;-70
2023/08/25 05:05:07;;;;;;;1.50;1.40;;;24.50;99.90;;;;;;5031616;28;20220;-70
2023/08/25 05:07:34;;;;;;;1.90;1.80;;;24.50;99.90;;;;;;5033074;28;20728;-70
2023/08/25 05:10:00;;;;;;;1.52;1.42;;;24.50;99.90;;;;;;5024705;28;20184;-69
2023/08/25 05:12:27;;;;;;;1.65;1.58;;;24.50;99.90;;;;;;5047451;28;20237;-69
2023/08/25 05:14:54;;;;;;;1.80;1.70;;;24.50;99.90;;;;;;5041976;28;20256;-70
2023/08/25 05:17:20;;;;;;;1.60;1.50;;;24.50;99.90;;;;;;5024683;28;20270;-70
2023/08/25 05:19:49;;;;;;;1.50;1.38;;;24.50;99.90;;;;;;5016665;28;20198;-70
2023/08/25 05:22:15;;;;;;;1.65;1.55;;;24.50;99.90;;;;;;5016767;28;20201;-70
2023/08/25 05:24:41;;;;;;;1.70;1.60;;;24.50;99.90;;;;;;5032465;28;20211;-72
2023/08/25 05:27:07;;;;;;;1.27;1.20;;;24.50;99.90;;;;;;5040799;28;20802;-69
2023/08/25 05:29:33;;;;;;;1.58;1.48;;;24.50;99.90;;;;;;5033217;28;20195;-69
2023/08/25 05:32:03;;;;;;;1.73;1.63;;;24.50;99.90;;;;;;5016965;28;20187;-69
2023/08/25 05:34:39;;;;;;;1.40;1.30;;;24.50;99.90;;;;;;5032786;28;20187;-70
2023/08/25 05:37:07;;;;;;;2.47;1.60;;;24.60;99.90;;;;;;5027169;28;20191;-69
2023/08/25 05:39:33;;;;;;;1.55;1.45;;;24.60;99.90;;;;;;5018815;28;20198;-70
2023/08/25 05:41:58;;;;;;;1.70;1.60;;;24.50;99.90;;;;;;5039916;28;20199;-70
2023/08/25 05:44:26;;;;;;;1.63;1.52;;;24.50;99.90;;;;;;5032570;28;20203;-70
2023/08/25 05:46:52;;;;;;;1.77;1.60;;;24.50;99.90;;;;;;5025202;28;20265;-69
2023/08/25 05:49:18;;;;;;;1.88;1.77;;;24.50;99.90;;;;;;5028833;28;20180;-70
2023/08/25 05:51:45;;;;;;;1.60;1.50;;;24.50;99.90;;;;;;5019762;28;20246;-70
2023/08/25 05:54:11;;;;;;;1.60;1.50;;;24.50;99.90;;;;;;5052355;28;20191;-70
2023/08/25 05:56:38;;;;;;;1.85;1.75;;;24.50;99.90;;;;;;5043889;28;20210;-69
2023/08/25 05:59:04;;;;;;;1.45;1.38;;;24.60;99.90;;;;;;5042095;28;20213;-70
2023/08/25 06:01:29;;;;;;;1.67;1.58;;;24.50;99.90;;;;;;5040733;28;20709;-70
2023/08/25 06:03:55;;;;;;;2.38;1.80;;;24.60;99.90;;;;;;5023590;28;20226;-70
2023/08/25 06:06:21;;;;;;;1.90;1.80;;;24.50;99.90;;;;;;5040409;28;20214;-70
2023/08/25 06:08:47;;;;;;;1.65;1.55;;;24.50;99.90;;;;;;5041851;28;20195;-70
2023/08/25 06:11:13;;;;;;;1.52;1.45;;;24.50;99.90;;;;;;5049321;28;20178;-69
2023/08/25 06:13:39;;;;;;;2.00;1.80;;;24.60;99.90;;;;;;5037412;28;20191;-70
2023/08/25 06:16:05;;;;;;;1.70;1.60;;;24.50;99.90;;;;;;5044139;28;20211;-69
2023/08/25 06:18:31;;;;;;;1.80;1.60;;;24.50;99.90;;;;;;5044354;28;20195;-70
2023/08/25 06:20:56;;;;;;;1.58;1.48;;;24.50;99.90;;;;;;5044634;28;20210;-70
2023/08/25 06:23:22;;;;;;;1.55;1.45;;;24.60;99.90;;;;;;5045639;28;20237;-69
2023/08/25 06:25:48;;;;;;;1.80;1.70;;;24.60;99.90;;;;;;5036372;28;20214;-70
2023/08/25 06:28:14;;;;;;;1.60;1.50;;;24.60;99.90;;;;;;5036398;28;20191;-69
2023/08/25 06:30:41;;;;;;;1.83;1.73;;;24.50;99.90;;;;;;5028477;28;20589;-70
2023/08/25 06:33:09;;;;;;;1.83;1.73;;;24.50;99.90;;;;;;5051866;28;20186;-69
2023/08/25 06:35:41;;;;;;;1.90;1.80;;;24.50;99.90;;;;;;5020496;28;20201;-70
2023/08/25 06:38:06;;;;;;;2.72;1.75;;;24.50;99.90;;;;;;5038128;28;20187;-69
2023/08/25 06:40:35;;;;;;;1.65;1.55;;;24.50;99.90;;;;;;5037269;28;20190;-70
2023/08/25 06:43:02;;;;;;;1.65;1.55;;;24.50;99.90;;;;;;5053294;28;20218;-68
2023/08/25 06:45:30;;;;;;;1.90;1.67;;;24.50;99.90;;;;;;5047566;28;20645;-69
2023/08/25 06:47:57;;;;;;;1.83;1.73;;;24.50;99.90;;;;;;5030150;28;20199;-70
2023/08/25 06:50:24;;;;;;;1.83;1.73;;;24.60;99.90;;;;;;5031764;28;20254;-70
2023/08/25 06:52:50;;;;;;;1.85;1.75;;;24.50;99.90;;;;;;5039170;28;20183;-70
2023/08/25 06:55:17;;;;;;;1.77;1.65;;;24.50;99.90;;;;;;5040352;28;20219;-69
2023/08/25 06:57:47;;;;;;;1.77;1.67;;;24.50;99.90;;;;;;5031263;28;20222;-70
2023/08/25 07:00:14;;;;;;;2.00;1.90;;;24.50;99.90;;;;;;5051864;28;20192;-70
2023/08/25 07:02:42;;;;;;;1.80;1.70;;;24.60;99.90;;;;;;5031517;28;20222;-70
2023/08/25 07:05:10;;;;;;;3.30;1.70;;;24.50;99.90;;;;;;5038745;28;20230;-72
2023/08/25 07:07:37;;;;;;;4.55;2.15;;;24.60;99.90;;;;;;5039803;28;20183;-72
2023/08/25 07:10:04;;;;;;;6.55;3.33;;;23.90;99.90;;;;;;5047046;28;20189;-71
2023/08/25 07:12:31;;;;;;;5.75;3.00;;;23.70;99.90;;;;;;5022419;28;20582;-72
2023/08/25 07:14:56;;;;;;;6.20;2.97;;;23.60;99.90;;;;;;5033349;28;20235;-71
2023/08/25 07:17:22;;;;;;;4.18;3.00;;;23.20;99.90;;;;;;5027208;28;20236;-72
2023/08/25 07:19:48;;;;;;;3.53;3.15;;;23.00;99.90;;;;;;5041465;28;20206;-68
2023/08/25 07:22:14;;;;;;;4.05;3.38;;;22.80;99.90;;;;;;5034616;28;20195;-71
2023/08/25 07:24:39;;;;;;;5.82;4.05;;;22.90;99.90;;;;;;5034936;28;20236;-72
2023/08/25 07:27:05;;;;;;;4.13;3.25;;;22.90;99.90;;;;;;5044530;28;20197;-72
2023/08/25 07:29:35;;;;;;;6.05;3.40;;;23.00;99.90;;;;;;5042563;28;20175;-72
2023/08/25 07:32:01;;;;;;;3.75;3.13;;;23.00;99.90;;;;;;5053462;28;20190;-72
2023/08/25 07:34:26;;;;;;;4.55;3.15;;;23.00;99.90;;;;;;5029767;28;20573;-71
2023/08/25 07:36:53;;;;;;;3.58;3.28;;;22.90;99.90;;;;;;5047735;28;20289;-71
2023/08/25 07:39:19;;;;;;;3.67;2.72;;;23.30;99.90;;;;;;5014097;28;20240;-72
2023/08/25 07:41:45;;;;;;;6.25;3.50;;;23.30;99.90;;;;;;5029807;28;20604;-71
2023/08/25 07:44:11;;;;;;;3.72;3.30;;;23.40;99.90;;;;;;5038533;28;20589;-72
2023/08/25 07:46:38;;;;;;;4.68;3.20;;;23.30;99.90;;;;;;5037332;28;20214;-71
2023/08/25 07:49:07;;;;;;;3.85;2.90;;;23.60;99.90;;;;;;5037447;28;20200;-72
2023/08/25 07:51:33;;;;;;;4.13;2.88;;;23.70;99.90;;;;;;5032593;28;20187;-71
2023/08/25 07:53:58;;;;;;;4.07;3.40;;;23.30;99.90;;;;;;5034920;28;20191;-71
2023/08/25 07:56:24;;;;;;;3.00;2.72;;;23.10;99.90;;;;;;5028808;28;20206;-72
2023/08/25 07:58:50;;;;;;;4.10;3.15;;;23.00;99.90;;;;;;5034970;28;20191;-71
2023/08/25 08:01:16;;;;;;;3.10;2.80;;;22.90;99.90;;;;;;5042682;28;20190;-72
2023/08/25 08:03:42;;;;;;;7.28;3.13;;;22.50;99.90;;;;;;5027601;28;20206;-72
2023/08/25 08:06:07;;;;;;;3.92;2.85;;;22.30;99.90;;;;;;5045925;28;20253;-72
2023/08/25 08:08:33;;;;;;;3.35;3.05;;;22.50;99.90;;;;;;5022396;28;20172;-72
2023/08/25 08:10:59;;;;;;;3.10;2.70;;;22.50;99.90;;;;;;5071515;28;20189;-72
2023/08/25 08:13:24;;;;;;;4.22;3.13;;;22.50;99.90;;;;;;5055122;28;20191;-72
2023/08/25 08:15:50;;;;;;;5.82;3.17;;;22.10;99.90;;;;;;5059785;28;20207;-72
2023/08/25 08:18:16;;;;;;;4.70;3.10;;;21.90;99.90;;;;;;5037302;28;20175;-71
2023/08/25 08:20:43;;;;;;;3.30;3.10;;;21.90;99.90;;;;;;5035808;28;20619;-72
2023/08/25 08:23:09;;;;;;;4.00;3.00;;;22.00;99.90;;;;;;5032494;28;20186;-71
2023/08/25 08:25:36;;;;;;;3.47;3.03;;;22.50;99.90;;;;;;5054538;28;20272;-72
2023/08/25 08:28:02;;;;;;;5.57;3.10;;;23.00;99.90;;;;;;5046049;28;20658;-71
2023/08/25 08:30:28;;;;;;;4.28;3.15;;;23.30;99.90;;;;;;5029537;28;20191;-72
2023/08/25 08:32:54;;;;;;;4.68;2.92;;;22.90;99.90;;;;;;5055227;28;20236;-71
2023/08/25 08:35:20;;;;;;;4.68;3.20;;;22.70;99.90;;;;;;5030694;28;20210;-72
2023/08/25 08:37:46;;;;;;;3.10;2.75;;;22.80;99.90;;;;;;5036982;28;20187;-72
2023/08/25 08:40:12;;;;;;;4.50;2.63;;;22.60;99.90;;;;;;5041779;28;20188;-72
2023/08/25 08:42:39;;;;;;;3.28;2.85;;;22.90;99.90;;;;;;5014184;28;20655;-72
2023/08/25 08:45:10;;;;;;;3.05;2.75;;;22.30;99.90;;;;;;5033317;28;20226;-72
2023/08/25 08:47:37;;;;;;;3.55;2.78;;;21.90;99.90;;;;;;5038901;28;20183;-72
2023/08/25 08:50:06;;;;;;;2.95;2.65;;;21.70;99.90;;;;;;5038449;28;20187;-72
2023/08/25 08:52:32;;;;;;;2.88;2.58;;;22.00;99.90;;;;;;5034715;28;20181;-72
2023/08/25 08:54:59;;;;;;;3.65;3.00;;;22.00;99.90;;;;;;5033382;28;20298;-72
2023/08/25 08:57:27;;;;;;;3.03;2.60;;;22.20;99.90;;;;;;5042095;28;20569;-72
2023/08/25 08:59:53;;;;;;;3.85;2.75;;;22.30;99.90;;;;;;5034050;28;20215;-72
2023/08/25 09:02:22;;;;;;;3.10;2.80;;;22.30;99.90;;;;;;5017026;28;20240;-72
2023/08/25 09:04:57;;;;;;;3.97;2.92;;;22.60;99.90;;;;;;5040284;28;20301;-73
2023/08/25 09:07:27;;;;;;;3.53;2.60;;;22.50;99.90;;;;;;5033551;28;20171;-72
2023/08/25 09:09:53;;;;;;;3.58;2.70;;;22.60;99.90;;;;;;5034748;28;20233;-72
2023/08/25 09:12:20;;;;;;;4.35;2.50;;;22.90;99.90;;;;;;5036823;28;20175;-72
2023/08/25 09:14:46;;;;;;;3.50;2.70;;;23.00;99.90;;;;;;5039572;28;20219;-73
2023/08/25 09:17:14;;;;;;;2.80;2.50;;;23.10;99.90;;;;;;5035717;28;20186;-72
2023/08/25 09:19:40;;;;;;;4.25;2.60;;;23.20;99.90;;;;;;5039320;28;20225;-72
2023/08/25 09:22:13;;;;;;;3.97;2.67;;;22.90;99.90;;;;;;5033031;28;20298;-72
2023/08/25 09:24:42;;;;;;;4.45;2.97;;;22.70;99.90;;;;;;5033564;28;20230;-73
2023/08/25 09:27:25;;;;;;;3.20;2.67;;;22.80;99.90;;;;;;5033447;28;20206;-72
2023/08/25 09:30:04;;;;;;;2.92;2.50;;;23.00;99.90;;;;;;5033424;28;20266;-72
2023/08/25 09:32:31;;;;;;;2.67;2.47;;;23.10;99.90;;;;;;5009909;28;20191;-72
2023/08/25 09:35:11;;;;;;;2.83;2.63;;;22.90;99.90;;;;;;5033967;28;20253;-72
2023/08/25 09:37:43;;;;;;;2.72;2.53;;;22.70;99.90;;;;;;5033228;28;20178;-72
2023/08/25 09:40:15;;;;;;;3.92;3.13;;;22.70;99.90;;;;;;5041204;28;20189;-72
2023/08/25 09:42:41;;;;;;;2.88;2.67;;;22.80;99.90;;;;;;5022724;28;20638;-73
2023/08/25 09:45:09;;;;;;;5.05;2.67;;;23.00;99.90;;;;;;5034419;28;20677;-72
2023/08/25 09:47:36;;;;;;;2.80;2.60;;;22.90;99.90;;;;;;5033942;28;20715;-72
2023/08/25 09:50:03;;;;;;;2.92;2.08;;;22.90;99.90;;;;;;5033938;28;20190;-72
2023/08/25 09:52:35;;;;;;;2.58;2.25;;;22.50;99.90;;;;;;5035635;28;20175;-72
2023/08/25 09:55:01;;;;;;;2.63;2.42;;;22.50;99.90;;;;;;5035622;28;20211;-73
2023/08/25 09:57:28;;;;;;;3.17;2.60;;;22.50;99.90;;;;;;5033850;28;20183;-72
2023/08/25 09:59:55;;;;;;;3.70;2.15;;;22.40;99.90;;;;;;5032557;28;20199;-72
2023/08/25 10:02:22;;;;;;;4.38;2.22;;;22.30;99.90;;;;;;5024298;28;20689;-72
2023/08/25 10:04:48;;;;;;;2.22;2.05;;;22.40;99.90;;;;;;5032770;28;20638;-72
2023/08/25 10:07:14;;;;;;;3.25;2.50;;;22.50;99.90;;;;;;5043463;28;20179;-72
2023/08/25 10:09:40;;;;;;;2.30;2.10;;;22.60;99.90;;;;;;5044480;28;20175;-73
2023/08/25 10:12:10;;;;;;;3.33;2.25;;;22.70;99.90;;;;;;5044327;28;20190;-73
2023/08/25 10:14:40;;;;;;;1.95;1.75;;;22.70;99.90;;;;;;5044227;28;20273;-72
2023/08/25 10:17:11;;;;;;;4.50;2.38;;;22.70;99.90;;;;;;5043764;28;20186;-72
2023/08/25 10:19:38;;;;;;;2.38;2.17;;;22.70;99.90;;;;;;5021616;28;20190;-72
2023/08/25 10:22:06;;;;;;;2.17;1.98;;;22.70;99.90;;;;;;5043580;28;20257;-72
2023/08/25 10:24:34;;;;;;;2.22;2.13;;;22.70;99.90;;;;;;5045209;28;20194;-72
2023/08/25 10:27:01;;;;;;;2.42;2.22;;;22.70;99.90;;;;;;5027597;28;20205;-71
2023/08/25 10:29:28;;;;;;;3.17;2.30;;;22.70;99.90;;;;;;5046090;28;20189;-71
2023/08/25 10:32:02;;;;;;;2.65;2.45;;;22.60;99.90;;;;;;5045548;28;20187;-72
2023/08/25 10:34:37;;;;;;;2.55;2.20;;;22.60;99.90;;;;;;5032629;28;20186;-72
2023/08/25 10:37:24;;;;;;;4.22;2.30;;;22.80;99.90;;;;;;5042594;28;20194;-72
2023/08/25 10:40:01;;;;;;;2.53;2.20;;;22.90;99.90;;;;;;5044320;28;20285;-71
2023/08/25 10:42:32;;;;;;;5.03;2.70;;;22.90;99.90;;;;;;5033898;28;20226;-71
2023/08/25 10:45:06;;;;;;;3.25;2.38;;;23.10;99.90;;;;;;5049136;28;20222;-72
2023/08/25 10:47:32;;;;;;;2.70;2.38;;;23.00;99.90;;;;;;5034108;28;20207;-72
2023/08/25 10:50:03;;;;;;;3.78;2.72;;;23.00;99.90;;;;;;5048650;28;20661;-72
2023/08/25 10:52:30;;;;;;;4.00;2.60;;;23.00;99.90;;;;;;5033779;28;20186;-72
2023/08/25 10:54:55;;;;;;;3.00;2.70;;;23.00;99.90;;;;;;5041543;28;20207;-72
2023/08/25 10:57:27;;;;;;;2.70;2.50;;;22.90;99.90;;;;;;5049054;28;20256;-72
2023/08/25 11:00:24;;;;;;;2.60;2.40;;;22.80;99.90;;;;;;5049165;28;20553;-71
2023/08/25 11:02:51;;;;;;;2.92;2.33;;;22.90;99.90;;;;;;5047616;28;20218;-72
2023/08/25 11:05:31;;;;;;;2.25;2.05;;;22.90;99.90;;;;;;5045541;28;20219;-72
2023/08/25 11:08:01;;;;;;;2.40;2.20;;;22.90;99.90;;;;;;5044484;28;20187;-71
2023/08/25 11:10:30;;;;;;;2.47;2.28;;;23.00;99.90;;;;;;5031384;28;20182;-72
2023/08/25 11:13:00;;;;;;;2.55;2.28;;;23.00;99.90;;;;;;5040182;28;20186;-72
2023/08/25 11:15:26;;;;;;;2.58;2.38;;;23.10;99.90;;;;;;5055167;28;20271;-72
2023/08/25 11:17:53;;;;;;;2.70;2.33;;;23.20;99.90;;;;;;5048749;28;20198;-72
2023/08/25 11:20:19;;;;;;;3.10;2.38;;;23.10;99.90;;;;;;5028583;28;20205;-71
2023/08/25 11:22:58;;;;;;;2.38;2.20;;;23.20;99.90;;;;;;5026647;28;20192;-72
2023/08/25 11:25:25;;;;;;;2.75;2.55;;;23.20;99.90;;;;;;5029637;28;20226;-72
2023/08/25 11:27:55;;;;;;;3.45;2.63;;;23.20;99.90;;;;;;5048815;28;20194;-72
2023/08/25 11:30:21;;;;;;;2.60;2.40;;;23.10;99.90;;;;;;5045876;28;20184;-72
2023/08/25 11:32:48;;;;;;;2.85;2.30;;;23.20;99.90;;;;;;5055630;28;20195;-72
2023/08/25 11:35:14;;;;;;;2.90;2.60;;;23.20;99.90;;;;;;5045576;28;20777;-72
2023/08/25 11:37:41;;;;;;;3.08;2.58;;;23.10;99.90;;;;;;5043588;28;20261;-72
2023/08/25 11:40:25;;;;;;;3.47;2.60;;;23.20;99.90;;;;;;5030639;28;20252;-73
2023/08/25 11:42:51;;;;;;;3.53;2.65;;;23.20;99.90;;;;;;5049360;28;20187;-72
2023/08/25 11:45:17;;;;;;;3.42;2.30;;;23.20;99.90;;;;;;5051511;28;20229;-72
2023/08/25 11:47:43;;;;;;;3.40;2.60;;;23.30;99.90;;;;;;5025774;28;20188;-72
2023/08/25 11:50:09;;;;;;;2.83;2.50;;;23.40;99.90;;;;;;5026372;28;20226;-72
2023/08/25 11:52:35;;;;;;;2.97;2.67;;;23.30;99.90;;;;;;5039033;28;20190;-71
2023/08/25 11:55:01;;;;;;;3.88;3.03;;;23.20;99.90;;;;;;5046832;28;20702;-72
2023/08/25 11:57:37;;;;;;;3.08;2.78;;;23.30;99.90;;;;;;5047103;28;20217;-72
2023/08/25 12:00:06;;;;;;;2.63;2.42;;;23.30;99.90;;;;;;5046859;28;20186;-72
2023/08/25 12:02:33;;;;;;;3.33;2.45;;;23.30;99.90;;;;;;5051924;28;20193;-72
2023/08/25 12:05:04;;;;;;;2.88;2.58;;;23.40;99.90;;;;;;5036026;28;20214;-71
2023/08/25 12:07:32;;;;;;;3.53;3.08;;;23.30;99.90;;;;;;5046473;28;20194;-72
2023/08/25 12:10:06;;;;;;;3.30;3.00;;;23.30;99.90;;;;;;5037748;28;20183;-71
2023/08/25 12:12:37;;;;;;;4.93;2.92;;;23.20;99.90;;;;;;5017184;28;20186;-72
2023/08/25 12:15:08;;;;;;;3.58;2.78;;;23.20;99.90;;;;;;5043576;28;20269;-72
2023/08/25 12:17:36;;;;;;;3.90;3.10;;;23.30;99.90;;;;;;5042931;28;20221;-72
2023/08/25 12:20:16;;;;;;;3.28;2.92;;;23.30;99.90;;;;;;5041378;28;20206;-72
2023/08/25 12:23:00;;;;;;;4.55;3.13;;;23.30;99.90;;;;;;5046025;28;20179;-72
2023/08/25 12:25:28;;;;;;;3.50;3.20;;;23.30;99.90;;;;;;5035126;28;20234;-71
2023/08/25 12:27:54;;;;;;;3.75;3.22;;;23.40;99.90;;;;;;5041583;28;20229;-72
2023/08/25 12:30:21;;;;;;;3.63;3.33;;;23.30;99.90;;;;;;5025552;28;20187;-72
2023/08/25 12:32:47;;;;;;;4.05;3.60;;;23.40;99.90;;;;;;5040052;28;20696;-72
2023/08/25 12:35:13;;;;;;;5.45;3.70;;;23.50;99.90;;;;;;5046515;28;20215;-72
2023/08/25 12:37:39;;;;;;;4.03;3.72;;;23.50;99.90;;;;;;5048043;28;20222;-72
2023/08/25 12:40:05;;;;;;;4.97;4.50;;;23.40;99.90;;;;;;5053679;28;20188;-72
2023/08/25 12:42:31;;;;;;;5.50;4.22;;;23.40;99.90;;;;;;5039232;28;20195;-72
2023/08/25 12:44:57;;;;;;;4.60;3.80;;;23.40;99.90;;;;;;5042939;28;20227;-72
2023/08/25 12:47:24;;;;;;;4.55;4.07;;;23.40;99.90;;;;;;5043266;28;20261;-72
2023/08/25 12:49:50;;;;;;;5.63;4.18;;;23.40;99.90;;;;;;5023762;28;20681;-72
2023/08/25 12:52:16;;;;;;;5.70;4.43;;;23.30;99.90;;;;;;5022343;28;20186;-72